Time;durP1;ratioP1;P1;durP2;ratioP2;P2;SDS_P1;SDS_P2;PMS_P1;PMS_P2;Temp;Humidity;BMP_temperature;BMP_pressure;BME280_temperature;BME280_humidity;BME280_pressure;Samples;Min_cycle;Max_cycle;Signal;HPM_P1;HPM_P2
2022/04/06 00:02:16;;;;;;;5.03;4.10;;;8.80;99.90;;;;;;5074321;28;20197;-85
2022/04/06 00:04:41;;;;;;;4.40;4.00;;;8.80;99.80;;;;;;5072867;28;20228;-86
2022/04/06 00:07:07;;;;;;;4.40;4.00;;;8.80;99.80;;;;;;5074037;28;20610;-85
2022/04/06 00:09:37;;;;;;;5.67;4.10;;;8.80;99.80;;;;;;5074005;28;20173;-83
2022/04/06 00:12:04;;;;;;;4.80;4.30;;;8.80;99.90;;;;;;5073883;28;20698;-86
2022/04/06 00:14:30;;;;;;;5.00;4.60;;;8.80;99.80;;;;;;5072691;28;20265;-84
2022/04/06 00:16:58;;;;;;;8.40;4.90;;;8.80;99.80;;;;;;5072591;28;20205;-86
2022/04/06 00:19:23;;;;;;;5.67;4.77;;;8.80;99.90;;;;;;5073986;28;20531;-85
2022/04/06 00:21:50;;;;;;;4.97;4.57;;;8.80;99.90;;;;;;5074826;28;20178;-81
2022/04/06 00:24:16;;;;;;;4.83;4.40;;;8.70;99.90;;;;;;5079537;28;20183;-82
2022/04/06 00:26:42;;;;;;;4.97;4.57;;;8.60;99.90;;;;;;5073737;28;20274;-82
2022/04/06 00:29:07;;;;;;;6.23;4.70;;;8.60;99.90;;;;;;5078977;28;20174;-83
2022/04/06 00:31:33;;;;;;;5.47;4.67;;;8.50;99.90;;;;;;5079153;28;20207;-85
2022/04/06 00:33:59;;;;;;;4.87;4.43;;;8.50;99.90;;;;;;5077666;28;20166;-81
2022/04/06 00:36:25;;;;;;;5.20;4.33;;;8.50;99.90;;;;;;5076464;28;20183;-83
2022/04/06 00:38:50;;;;;;;5.30;4.80;;;8.50;99.90;;;;;;5079522;28;20169;-82
2022/04/06 00:41:16;;;;;;;4.47;4.17;;;8.60;99.90;;;;;;5080316;28;20181;-81
2022/04/06 00:43:42;;;;;;;5.27;4.77;;;8.60;99.90;;;;;;5079644;28;20219;-83
2022/04/06 00:46:08;;;;;;;7.37;4.77;;;8.60;99.90;;;;;;5083022;28;20171;-87
2022/04/06 00:48:33;;;;;;;4.77;4.37;;;8.50;99.90;;;;;;5075551;28;20181;-90
2022/04/06 00:50:59;;;;;;;4.57;4.27;;;8.50;99.90;;;;;;5080471;28;20320;-90
2022/04/06 00:53:26;;;;;;;4.53;4.17;;;8.40;99.90;;;;;;5074522;28;20225;-90
2022/04/06 00:55:52;;;;;;;5.60;5.10;;;8.30;99.90;;;;;;5074135;28;20177;-91
2022/04/06 00:58:18;;;;;;;7.57;5.07;;;8.20;99.90;;;;;;5073751;28;20258;-85
2022/04/06 01:00:44;;;;;;;5.40;4.87;;;8.20;99.90;;;;;;5075291;28;20163;-87
2022/04/06 01:03:10;;;;;;;6.27;4.53;;;8.20;99.90;;;;;;5073698;28;20183;-83
2022/04/06 01:05:36;;;;;;;4.53;4.13;;;8.10;99.90;;;;;;5073560;28;20590;-87
2022/04/06 01:08:02;;;;;;;5.10;4.70;;;8.10;99.90;;;;;;5073590;28;20634;-87
2022/04/06 01:10:28;;;;;;;4.80;4.40;;;8.20;99.90;;;;;;5073449;28;20239;-87
2022/04/06 01:12:55;;;;;;;4.30;4.10;;;8.20;99.90;;;;;;5073545;28;20199;-88
2022/04/06 01:15:21;;;;;;;4.47;4.17;;;8.10;99.90;;;;;;5073852;28;20175;-83
2022/04/06 01:17:46;;;;;;;4.60;4.30;;;8.10;99.90;;;;;;5074570;28;20646;-87
2022/04/06 01:20:13;;;;;;;4.63;4.23;;;8.10;99.90;;;;;;5074313;28;20492;-86
2022/04/06 01:22:39;;;;;;;4.57;4.17;;;8.00;99.90;;;;;;5074211;28;20173;-83
2022/04/06 01:25:06;;;;;;;6.97;4.03;;;8.10;99.90;;;;;;5074461;28;20199;-83
2022/04/06 01:27:32;;;;;;;3.87;3.57;;;8.00;99.90;;;;;;5072576;28;20648;-86
2022/04/06 01:29:58;;;;;;;7.10;3.83;;;8.00;99.90;;;;;;5073157;28;20200;-84
2022/04/06 01:32:26;;;;;;;4.77;3.63;;;8.00;99.90;;;;;;5072049;28;20285;-87
2022/04/06 01:34:54;;;;;;;4.40;4.00;;;8.00;99.90;;;;;;5073490;28;20207;-88
2022/04/06 01:37:21;;;;;;;3.90;3.63;;;8.00;99.90;;;;;;5072235;28;20292;-84
2022/04/06 01:39:49;;;;;;;3.70;3.50;;;8.00;99.90;;;;;;5073402;28;20627;-88
2022/04/06 01:42:17;;;;;;;4.30;3.90;;;7.90;99.90;;;;;;5073619;28;20721;-88
2022/04/06 01:44:46;;;;;;;3.63;3.10;;;7.90;99.90;;;;;;5073440;28;20190;-88
2022/04/06 01:47:15;;;;;;;3.50;3.30;;;7.90;99.90;;;;;;5072341;28;20242;-89
2022/04/06 01:52:26;;;;;;;3.47;3.17;;;7.90;99.90;;;;;;5073747;28;20202;-89
2022/04/06 01:55:00;;;;;;;4.73;3.23;;;8.00;99.90;;;;;;5076552;28;20557;-90
2022/04/06 01:57:27;;;;;;;3.30;3.10;;;8.00;99.90;;;;;;5080020;28;20160;-90
2022/04/06 01:59:53;;;;;;;3.27;3.07;;;7.90;99.90;;;;;;5083425;28;20160;-90
2022/04/06 02:02:21;;;;;;;3.23;3.00;;;7.90;99.90;;;;;;5080295;28;20184;-91
2022/04/06 02:04:47;;;;;;;4.80;3.10;;;7.90;99.90;;;;;;5081643;28;20178;-90
2022/04/06 02:07:14;;;;;;;3.10;2.77;;;8.00;99.90;;;;;;5078240;28;20177;-88
2022/04/06 02:09:40;;;;;;;3.17;2.97;;;8.00;99.90;;;;;;5077584;28;20207;-91
2022/04/06 02:12:08;;;;;;;5.10;3.50;;;8.00;99.90;;;;;;5076326;28;20207;-85
2022/04/06 02:14:34;;;;;;;3.57;3.33;;;8.00;99.90;;;;;;5078537;28;20226;-82
2022/04/06 02:17:03;;;;;;;4.53;3.57;;;8.00;99.90;;;;;;5080865;28;20175;-83
2022/04/06 02:19:29;;;;;;;3.97;3.67;;;8.00;99.90;;;;;;5081329;28;20169;-82
2022/04/06 02:21:55;;;;;;;4.30;3.97;;;7.90;99.90;;;;;;5079208;28;20175;-82
2022/04/06 02:24:21;;;;;;;4.90;4.27;;;7.80;99.90;;;;;;5080822;28;20174;-83
2022/04/06 02:26:46;;;;;;;4.00;3.70;;;7.80;99.90;;;;;;5087619;28;20179;-82
2022/04/06 02:29:12;;;;;;;4.53;4.23;;;7.70;99.90;;;;;;5090284;28;20235;-81
2022/04/06 02:31:39;;;;;;;4.37;4.00;;;7.70;99.90;;;;;;5089220;28;20227;-83
2022/04/06 02:34:05;;;;;;;5.00;4.57;;;7.60;99.90;;;;;;5081569;28;20489;-82
2022/04/06 02:36:30;;;;;;;4.83;4.33;;;7.50;99.90;;;;;;5080256;28;20172;-83
2022/04/06 02:38:56;;;;;;;6.70;4.20;;;7.50;99.90;;;;;;5075647;28;20241;-81
2022/04/06 02:41:22;;;;;;;4.87;4.47;;;7.40;99.90;;;;;;5075558;28;20215;-82
2022/04/06 02:43:48;;;;;;;4.67;4.17;;;7.50;99.90;;;;;;5075374;28;20167;-82
2022/04/06 02:46:13;;;;;;;4.47;4.03;;;7.50;99.90;;;;;;5076473;28;20182;-83
2022/04/06 02:48:39;;;;;;;4.00;3.57;;;7.40;99.90;;;;;;5078256;28;20255;-80
2022/04/06 02:51:05;;;;;;;4.20;3.47;;;7.50;99.90;;;;;;5076289;28;20231;-82
2022/04/06 02:53:31;;;;;;;4.03;3.07;;;7.60;99.90;;;;;;5076147;28;20175;-81
2022/04/06 02:55:57;;;;;;;4.90;2.30;;;7.60;99.90;;;;;;5075758;28;20203;-81
2022/04/06 02:58:22;;;;;;;2.57;2.47;;;7.70;99.90;;;;;;5077239;28;20269;-86
2022/04/06 03:00:48;;;;;;;3.23;2.43;;;7.80;99.90;;;;;;5075793;28;20254;-83
2022/04/06 03:03:14;;;;;;;2.63;2.13;;;7.80;99.90;;;;;;5075954;28;20650;-83
2022/04/06 03:05:39;;;;;;;2.50;2.30;;;7.80;99.90;;;;;;5076145;28;20168;-86
2022/04/06 03:08:07;;;;;;;2.27;2.00;;;7.70;99.90;;;;;;5076170;28;20177;-83
2022/04/06 03:10:33;;;;;;;2.63;2.53;;;7.70;99.90;;;;;;5077585;28;20191;-82
2022/04/06 03:12:59;;;;;;;2.03;1.93;;;7.80;99.90;;;;;;5077000;28;20220;-84
2022/04/06 03:15:25;;;;;;;2.27;2.17;;;7.80;99.90;;;;;;5083339;28;20645;-82
2022/04/06 03:17:51;;;;;;;2.80;2.60;;;7.80;99.90;;;;;;5081055;28;20255;-83
2022/04/06 03:20:17;;;;;;;2.60;2.40;;;7.80;99.90;;;;;;5079659;28;20658;-84
2022/04/06 03:22:43;;;;;;;2.57;2.37;;;7.70;99.90;;;;;;5079438;28;20653;-83
2022/04/06 03:25:10;;;;;;;2.60;2.50;;;7.70;99.90;;;;;;5079941;28;20173;-82
2022/04/06 03:27:36;;;;;;;2.80;2.60;;;7.60;99.90;;;;;;5084281;28;20167;-81
2022/04/06 03:30:06;;;;;;;3.90;2.67;;;7.70;99.90;;;;;;5081970;28;20176;-86
2022/04/06 03:32:32;;;;;;;3.50;2.90;;;7.70;99.90;;;;;;5077795;28;20206;-84
2022/04/06 03:34:58;;;;;;;3.00;2.80;;;7.70;99.90;;;;;;5077036;28;20669;-85
2022/04/06 03:37:24;;;;;;;3.83;3.17;;;7.60;99.90;;;;;;5073536;28;20638;-83
2022/04/06 03:39:50;;;;;;;2.63;2.43;;;7.60;99.90;;;;;;5074958;28;20173;-85
2022/04/06 03:42:15;;;;;;;4.80;2.80;;;7.60;99.90;;;;;;5074987;28;20178;-89
2022/04/06 03:44:43;;;;;;;6.03;3.30;;;7.60;99.90;;;;;;5075328;28;20173;-83
2022/04/06 03:47:08;;;;;;;3.40;3.10;;;7.40;99.90;;;;;;5081297;28;20167;-86
2022/04/06 03:49:34;;;;;;;3.70;3.20;;;7.40;99.90;;;;;;5074628;28;20248;-88
2022/04/06 03:52:00;;;;;;;5.07;3.47;;;7.40;99.90;;;;;;5074582;28;20289;-85
2022/04/06 03:54:26;;;;;;;3.50;3.20;;;7.30;99.90;;;;;;5074338;28;20723;-84
2022/04/06 03:56:51;;;;;;;3.57;3.27;;;7.30;99.90;;;;;;5075159;28;20179;-86
2022/04/06 03:59:18;;;;;;;3.60;3.40;;;7.20;99.90;;;;;;5081055;28;20171;-82
2022/04/06 04:01:44;;;;;;;4.27;3.30;;;7.20;99.90;;;;;;5083981;28;20170;-87
2022/04/06 04:04:10;;;;;;;3.80;3.50;;;7.10;99.90;;;;;;5084959;28;20228;-82
2022/04/06 04:06:36;;;;;;;3.60;3.30;;;7.10;99.90;;;;;;5080832;28;20159;-85
2022/04/06 04:09:03;;;;;;;3.50;3.20;;;7.10;99.90;;;;;;5085153;28;20171;-86
2022/04/06 04:11:29;;;;;;;3.47;3.17;;;7.20;99.90;;;;;;5075654;28;20206;-85
2022/04/06 04:13:55;;;;;;;3.30;3.10;;;7.30;99.90;;;;;;5075321;28;20186;-88
2022/04/06 04:16:22;;;;;;;2.87;2.67;;;7.40;99.90;;;;;;5073434;28;20186;-82
2022/04/06 04:18:48;;;;;;;2.50;2.30;;;7.40;99.90;;;;;;5073803;28;20210;-84
2022/04/06 04:23:58;;;;;;;3.90;3.20;;;7.50;99.90;;;;;;5074175;28;20580;-85
2022/04/06 04:26:24;;;;;;;3.23;3.03;;;7.50;99.90;;;;;;5074226;28;20177;-85
2022/04/06 04:28:50;;;;;;;3.60;3.33;;;7.50;99.90;;;;;;5073598;28;20270;-85
2022/04/06 04:31:17;;;;;;;3.60;3.30;;;7.50;99.90;;;;;;5072262;28;20224;-86
2022/04/06 04:33:42;;;;;;;3.87;3.57;;;7.50;99.90;;;;;;5074250;28;20500;-83
2022/04/06 04:36:09;;;;;;;3.97;3.67;;;7.60;99.90;;;;;;5073364;28;20179;-82
2022/04/06 04:38:36;;;;;;;4.17;3.67;;;7.60;99.90;;;;;;5073273;28;20166;-82
2022/04/06 04:41:03;;;;;;;3.43;3.20;;;7.60;99.90;;;;;;5073225;28;20606;-83
2022/04/06 04:43:29;;;;;;;3.70;3.50;;;7.60;99.90;;;;;;5073546;28;20558;-89
2022/04/06 04:45:55;;;;;;;4.30;3.90;;;7.60;99.90;;;;;;5074896;28;20180;-86
2022/04/06 04:48:21;;;;;;;6.97;3.80;;;7.60;99.90;;;;;;5074848;28;20175;-87
2022/04/06 04:50:46;;;;;;;6.33;3.77;;;7.60;99.90;;;;;;5070019;28;20230;-88
2022/04/06 04:53:12;;;;;;;4.43;3.90;;;7.50;99.90;;;;;;5074730;28;20534;-86
2022/04/06 04:55:38;;;;;;;3.80;3.50;;;7.50;99.90;;;;;;5079809;28;20175;-85
2022/04/06 04:58:04;;;;;;;3.63;3.30;;;7.40;99.90;;;;;;5073502;28;20172;-87
2022/04/06 05:00:29;;;;;;;4.00;3.60;;;7.50;99.90;;;;;;5073328;28;20204;-90
2022/04/06 05:02:55;;;;;;;5.10;3.57;;;7.50;99.90;;;;;;5072268;28;20212;-86
2022/04/06 05:05:21;;;;;;;3.50;3.20;;;7.50;99.90;;;;;;5073603;28;20622;-84
2022/04/06 05:07:47;;;;;;;3.80;3.40;;;7.60;99.90;;;;;;5073301;28;20305;-86
2022/04/06 05:10:12;;;;;;;4.20;3.90;;;7.60;99.90;;;;;;5073918;28;20626;-85
2022/04/06 05:12:38;;;;;;;5.23;4.63;;;7.60;99.90;;;;;;5073837;28;20168;-84
2022/04/06 05:15:06;;;;;;;4.80;4.40;;;7.70;99.90;;;;;;5075819;28;20171;-82
2022/04/06 05:17:34;;;;;;;8.27;4.60;;;7.70;99.90;;;;;;5073597;28;20622;-91
2022/04/06 05:20:00;;;;;;;4.80;4.40;;;7.70;99.90;;;;;;5073199;28;20178;-87
2022/04/06 05:22:25;;;;;;;6.20;4.17;;;7.60;99.90;;;;;;5073318;28;20167;-87
2022/04/06 05:24:53;;;;;;;5.23;4.03;;;7.60;99.90;;;;;;5073271;28;20175;-83
2022/04/06 05:27:19;;;;;;;6.50;4.43;;;7.70;99.90;;;;;;5074919;28;20656;-88
2022/04/06 05:29:46;;;;;;;6.73;4.23;;;7.60;99.90;;;;;;5084944;28;20165;-89
2022/04/06 05:32:12;;;;;;;6.27;4.20;;;7.60;99.90;;;;;;5077591;28;20651;-90
2022/04/06 05:34:38;;;;;;;4.80;4.30;;;7.60;99.90;;;;;;5076507;28;20184;-89
2022/04/06 05:37:04;;;;;;;9.30;3.70;;;7.60;99.90;;;;;;5077546;28;20171;-86
2022/04/06 05:39:30;;;;;;;9.97;4.77;;;7.80;99.90;;;;;;5076688;28;20173;-89
2022/04/06 05:41:56;;;;;;;7.53;4.10;;;7.90;99.90;;;;;;5076852;28;20175;-88
2022/04/06 05:44:22;;;;;;;7.93;4.50;;;8.00;99.90;;;;;;5077362;28;20275;-88
2022/04/06 05:46:48;;;;;;;5.30;4.60;;;8.00;99.90;;;;;;5076972;28;20757;-85
2022/04/06 05:49:14;;;;;;;5.77;4.70;;;8.10;99.90;;;;;;5080957;28;20171;-86
2022/04/06 05:51:41;;;;;;;9.77;4.27;;;8.20;99.90;;;;;;5079830;28;20236;-81
2022/04/06 05:54:07;;;;;;;10.37;4.37;;;8.10;99.90;;;;;;5078911;28;20177;-84
2022/04/06 05:56:32;;;;;;;5.50;4.27;;;8.20;99.90;;;;;;5076509;28;20179;-83
2022/04/06 05:58:58;;;;;;;6.90;4.40;;;8.30;99.90;;;;;;5076400;28;20581;-82
2022/04/06 06:01:24;;;;;;;5.07;4.57;;;8.30;99.90;;;;;;5075208;28;20191;-83
2022/04/06 06:03:50;;;;;;;6.30;3.33;;;8.40;99.90;;;;;;5076355;28;20192;-83
2022/04/06 06:06:16;;;;;;;4.13;3.47;;;8.60;99.90;;;;;;5076413;28;20180;-85
2022/04/06 06:08:42;;;;;;;6.17;2.97;;;8.70;99.90;;;;;;5076024;28;20172;-83
2022/04/06 06:11:08;;;;;;;5.23;3.20;;;8.80;99.90;;;;;;5076843;28;20250;-87
2022/04/06 06:13:34;;;;;;;4.67;2.90;;;8.90;99.90;;;;;;5077409;28;20511;-85
2022/04/06 06:16:00;;;;;;;4.17;2.93;;;8.80;99.90;;;;;;5076525;28;20644;-84
2022/04/06 06:18:27;;;;;;;6.73;3.17;;;8.80;99.90;;;;;;5075886;28;20177;-83
2022/04/06 06:20:53;;;;;;;5.73;2.70;;;9.00;99.90;;;;;;5074874;28;20182;-86
2022/04/06 06:23:19;;;;;;;2.63;2.43;;;9.10;99.90;;;;;;5078765;28;20173;-85
2022/04/06 06:25:45;;;;;;;2.97;2.73;;;9.10;99.90;;;;;;5076719;28;20204;-86
2022/04/06 06:28:11;;;;;;;4.73;2.73;;;9.20;99.90;;;;;;5076288;28;20947;-88
2022/04/06 06:30:37;;;;;;;3.60;2.87;;;9.20;99.90;;;;;;5076772;28;20205;-87
2022/04/06 06:33:02;;;;;;;3.13;2.60;;;9.30;99.90;;;;;;5076718;28;20196;-88
2022/04/06 06:35:28;;;;;;;4.53;2.90;;;9.30;99.90;;;;;;5075189;28;20178;-84
2022/04/06 06:37:56;;;;;;;3.13;2.83;;;9.30;99.90;;;;;;5076269;28;20181;-86
2022/04/06 06:40:24;;;;;;;6.43;3.00;;;9.40;99.90;;;;;;5075353;28;20170;-89
2022/04/06 06:42:51;;;;;;;4.47;3.17;;;9.50;99.90;;;;;;5075013;28;20173;-86
2022/04/06 06:45:17;;;;;;;3.43;3.00;;;9.60;99.90;;;;;;5076261;28;20165;-84
2022/04/06 06:47:43;;;;;;;4.50;2.93;;;9.70;99.90;;;;;;5076583;28;20180;-87
2022/04/06 06:50:13;;;;;;;2.83;2.60;;;9.80;99.90;;;;;;5075778;28;20628;-87
2022/04/06 06:52:39;;;;;;;3.20;2.90;;;9.90;99.90;;;;;;5075655;28;20201;-86
2022/04/06 06:55:09;;;;;;;3.07;2.87;;;9.90;99.90;;;;;;5076497;28;20519;-86
2022/04/06 06:57:35;;;;;;;5.43;3.27;;;9.90;99.90;;;;;;5077125;28;20509;-86
2022/04/06 07:00:03;;;;;;;3.23;2.93;;;10.00;99.90;;;;;;5077929;28;20170;-88
2022/04/06 07:02:29;;;;;;;3.73;3.10;;;10.10;99.90;;;;;;5084483;28;20247;-84
2022/04/06 07:04:55;;;;;;;4.17;3.53;;;10.10;99.90;;;;;;5090677;28;20178;-85
2022/04/06 07:07:20;;;;;;;5.53;3.40;;;10.30;99.70;;;;;;5088180;28;20174;-83
2022/04/06 07:09:46;;;;;;;3.63;3.33;;;10.30;99.60;;;;;;5084498;28;20167;-82
2022/04/06 07:12:12;;;;;;;4.73;3.40;;;10.30;99.30;;;;;;5076277;28;20218;-86
2022/04/06 07:14:38;;;;;;;4.63;3.70;;;10.40;99.00;;;;;;5075720;28;20260;-84
2022/04/06 07:17:04;;;;;;;3.70;3.10;;;10.50;98.80;;;;;;5075661;28;20221;-83
2022/04/06 07:19:30;;;;;;;3.67;3.37;;;10.50;99.00;;;;;;5075287;28;20167;-83
2022/04/06 07:21:56;;;;;;;4.43;3.60;;;10.60;98.40;;;;;;5076129;28;20200;-84
2022/04/06 07:24:22;;;;;;;3.60;3.30;;;10.70;98.00;;;;;;5080765;28;20203;-88
2022/04/06 07:26:49;;;;;;;8.20;4.13;;;10.70;97.90;;;;;;5076233;28;20171;-86
2022/04/06 07:29:15;;;;;;;5.50;3.37;;;10.80;98.10;;;;;;5075953;28;20175;-89
2022/04/06 07:31:44;;;;;;;6.37;3.30;;;10.80;97.70;;;;;;5077513;28;20670;-89
2022/04/06 07:34:10;;;;;;;9.30;3.70;;;10.90;97.60;;;;;;5077680;28;20201;-90
2022/04/06 07:36:37;;;;;;;4.40;4.00;;;11.20;97.30;;;;;;5080472;28;20176;-87
2022/04/06 07:39:06;;;;;;;7.87;3.77;;;11.20;97.30;;;;;;5077982;28;20187;-88
2022/04/06 07:41:32;;;;;;;5.07;3.80;;;11.30;97.30;;;;;;5079385;28;20183;-89
2022/04/06 07:43:58;;;;;;;6.93;3.60;;;11.40;97.30;;;;;;5080429;28;20190;-89
2022/04/06 07:46:24;;;;;;;4.77;3.43;;;11.40;97.20;;;;;;5081358;28;20176;-85
2022/04/06 07:48:50;;;;;;;5.23;4.47;;;11.50;97.10;;;;;;5082597;28;20185;-85
2022/04/06 07:51:16;;;;;;;6.03;4.27;;;11.60;97.10;;;;;;5089428;28;20250;-83
2022/04/06 07:53:42;;;;;;;12.27;5.07;;;11.70;97.10;;;;;;5088741;28;20181;-89
2022/04/06 07:56:08;;;;;;;6.00;4.50;;;11.80;97.20;;;;;;5081877;28;20227;-87
2022/04/06 07:58:34;;;;;;;7.10;4.43;;;11.90;96.90;;;;;;5080745;28;20229;-84
2022/04/06 08:01:02;;;;;;;5.63;4.83;;;12.00;96.70;;;;;;5092127;28;20173;-82
2022/04/06 08:03:29;;;;;;;5.23;4.73;;;12.00;96.30;;;;;;5091182;28;20205;-82
2022/04/06 08:05:54;;;;;;;6.93;4.90;;;12.10;96.30;;;;;;5090445;28;21033;-88
2022/04/06 08:08:20;;;;;;;4.90;4.60;;;12.10;96.30;;;;;;5093106;28;20160;-84
2022/04/06 08:10:46;;;;;;;4.37;4.07;;;12.10;96.30;;;;;;5088807;28;20677;-85
2022/04/06 08:13:12;;;;;;;9.83;4.27;;;12.20;96.00;;;;;;5089767;28;20182;-88
2022/04/06 08:15:37;;;;;;;4.43;4.03;;;12.20;95.70;;;;;;5084769;28;20174;-87
2022/04/06 08:18:03;;;;;;;7.07;4.50;;;12.20;95.40;;;;;;5077695;28;20220;-86
2022/04/06 08:20:29;;;;;;;4.67;4.27;;;12.30;95.80;;;;;;5076984;28;20640;-88
2022/04/06 08:22:56;;;;;;;4.23;3.93;;;12.40;95.50;;;;;;5075698;28;20182;-87
2022/04/06 08:25:22;;;;;;;10.40;4.13;;;12.50;95.40;;;;;;5077471;28;20174;-84
2022/04/06 08:27:48;;;;;;;8.73;4.03;;;12.50;95.70;;;;;;5079199;28;20181;-86
2022/04/06 08:30:16;;;;;;;4.30;4.00;;;12.50;95.60;;;;;;5073665;28;20201;-87
2022/04/06 08:32:42;;;;;;;6.33;4.20;;;12.60;96.00;;;;;;5076737;28;20262;-86
2022/04/06 08:35:09;;;;;;;8.30;4.53;;;12.70;96.00;;;;;;5078524;28;20604;-86
2022/04/06 08:37:37;;;;;;;5.70;4.50;;;12.80;95.80;;;;;;5075582;28;20164;-87
2022/04/06 08:40:03;;;;;;;6.07;4.17;;;12.80;95.70;;;;;;5076051;28;20175;-84
2022/04/06 08:42:34;;;;;;;4.03;3.73;;;12.90;95.60;;;;;;5077612;28;20226;-86
2022/04/06 08:45:03;;;;;;;4.53;3.47;;;13.00;95.30;;;;;;5076582;28;20158;-85
2022/04/06 08:47:31;;;;;;;7.40;3.67;;;13.10;95.30;;;;;;5079087;28;20202;-86
2022/04/06 08:49:58;;;;;;;4.57;3.43;;;13.10;94.80;;;;;;5075256;28;20273;-88
2022/04/06 08:52:24;;;;;;;3.33;3.07;;;13.20;94.60;;;;;;5074433;28;20226;-86
2022/04/06 08:54:49;;;;;;;4.07;3.67;;;13.20;94.40;;;;;;5074078;28;20174;-86
2022/04/06 08:57:19;;;;;;;6.00;3.60;;;13.30;94.80;;;;;;5075557;28;20274;-85
2022/04/06 08:59:48;;;;;;;5.47;4.00;;;13.40;94.60;;;;;;5074833;28;20182;-86
2022/04/06 09:02:18;;;;;;;6.03;3.77;;;13.40;94.50;;;;;;5075177;28;20178;-89
2022/04/06 09:04:48;;;;;;;12.97;9.73;;;13.50;94.50;;;;;;5075794;28;20179;-88
2022/04/06 09:07:14;;;;;;;3.53;3.23;;;13.50;94.10;;;;;;5076355;28;20530;-86
2022/04/06 09:09:39;;;;;;;4.63;3.40;;;13.60;93.90;;;;;;5075681;28;20182;-87
2022/04/06 09:12:08;;;;;;;3.77;3.40;;;13.60;93.70;;;;;;5074218;28;20220;-86
2022/04/06 09:14:34;;;;;;;3.50;2.93;;;13.60;94.30;;;;;;5075947;28;20174;-87
2022/04/06 09:17:07;;;;;;;5.63;3.60;;;13.70;93.30;;;;;;5075490;28;20179;-88
2022/04/06 09:19:46;;;;;;;6.33;3.40;;;13.70;93.50;;;;;;5075464;28;20179;-86
2022/04/06 09:22:11;;;;;;;5.20;3.53;;;13.80;93.60;;;;;;5074739;28;20204;-88
2022/04/06 09:24:37;;;;;;;7.27;3.37;;;13.90;94.10;;;;;;5076242;28;20202;-90
2022/04/06 09:27:04;;;;;;;2.80;2.70;;;14.00;93.50;;;;;;5076365;28;20178;-87
2022/04/06 09:29:31;;;;;;;2.90;2.70;;;14.10;92.60;;;;;;5079282;28;20559;-87
2022/04/06 09:32:10;;;;;;;3.10;2.87;;;14.10;92.40;;;;;;5078659;28;20277;-86
2022/04/06 09:34:35;;;;;;;4.40;3.20;;;14.10;92.90;;;;;;5076667;28;20164;-86
2022/04/06 09:37:28;;;;;;;3.80;3.40;;;14.20;92.90;;;;;;5074243;28;20258;-88
2022/04/06 09:39:58;;;;;;;5.03;3.37;;;14.20;92.50;;;;;;5074742;28;20160;-87
2022/04/06 09:42:28;;;;;;;3.00;2.80;;;14.20;92.20;;;;;;5074357;28;20216;-85
2022/04/06 09:47:58;;;;;;;5.30;4.43;;;14.50;92.10;;;;;;5073972;28;20210;-84
2022/04/06 09:50:30;;;;;;;7.77;5.10;;;14.50;91.90;;;;;;5073784;28;20298;-85
2022/04/06 09:53:01;;;;;;;5.30;4.80;;;14.60;91.30;;;;;;5073619;28;20207;-86
2022/04/06 09:55:27;;;;;;;5.83;5.30;;;14.60;91.70;;;;;;5073825;28;20646;-84
2022/04/06 09:57:55;;;;;;;5.47;4.97;;;14.70;91.80;;;;;;5074237;28;20190;-83
2022/04/06 10:00:28;;;;;;;5.50;5.00;;;14.80;92.20;;;;;;5074410;28;20216;-83
2022/04/06 10:03:08;;;;;;;4.93;4.53;;;14.90;91.80;;;;;;5073706;28;20186;-85
2022/04/06 10:05:35;;;;;;;6.43;5.10;;;15.00;91.70;;;;;;5073886;28;20182;-85
2022/04/06 10:08:05;;;;;;;5.17;4.60;;;15.00;91.00;;;;;;5073104;28;20279;-87
2022/04/06 10:10:32;;;;;;;5.57;5.07;;;15.10;90.60;;;;;;5073790;28;20219;-89
2022/04/06 10:12:58;;;;;;;5.77;4.80;;;15.10;90.70;;;;;;5073697;28;20729;-88
2022/04/06 10:15:27;;;;;;;7.13;5.13;;;15.00;91.10;;;;;;5075501;28;20204;-87
2022/04/06 10:17:53;;;;;;;5.17;4.60;;;14.90;91.10;;;;;;5076993;28;20837;-85
2022/04/06 10:20:38;;;;;;;5.33;4.83;;;15.00;91.60;;;;;;5076532;28;20207;-85
2022/04/06 10:23:17;;;;;;;5.60;5.10;;;15.20;91.30;;;;;;5078379;28;20253;-88
2022/04/06 10:25:51;;;;;;;5.63;4.83;;;15.30;90.90;;;;;;5077421;28;20519;-86
2022/04/06 10:28:20;;;;;;;5.63;5.10;;;15.30;91.60;;;;;;5084270;28;20171;-88
2022/04/06 10:31:19;;;;;;;5.67;5.13;;;15.30;91.50;;;;;;5080792;28;20194;-88
2022/04/06 10:33:46;;;;;;;5.70;5.30;;;15.30;90.90;;;;;;5079014;28;20572;-85
2022/04/06 10:36:23;;;;;;;5.40;5.00;;;15.30;90.40;;;;;;5075723;28;20182;-84
2022/04/06 10:39:08;;;;;;;6.23;5.50;;;15.40;91.10;;;;;;5075139;28;20182;-84
2022/04/06 10:41:37;;;;;;;5.80;5.20;;;15.50;91.20;;;;;;5076245;28;20171;-83
2022/04/06 10:44:03;;;;;;;5.70;5.10;;;15.60;90.90;;;;;;5076278;28;20653;-84
2022/04/06 10:46:33;;;;;;;5.97;5.37;;;15.70;91.20;;;;;;5076025;28;20238;-84
2022/04/06 10:49:10;;;;;;;6.07;5.47;;;15.80;91.20;;;;;;5074603;28;20179;-83
2022/04/06 10:51:56;;;;;;;6.93;5.70;;;15.80;90.40;;;;;;5074343;28;20292;-85
2022/04/06 10:54:23;;;;;;;6.27;5.67;;;15.90;90.70;;;;;;5074156;28;20179;-83
2022/04/06 10:57:00;;;;;;;6.70;6.07;;;15.90;90.50;;;;;;5074415;28;20647;-87
2022/04/06 10:59:29;;;;;;;6.57;5.97;;;15.90;90.40;;;;;;5075428;28;20685;-88
2022/04/06 11:02:13;;;;;;;6.63;5.87;;;15.90;90.40;;;;;;5075402;28;20176;-88
2022/04/06 11:04:40;;;;;;;7.27;5.77;;;16.10;91.10;;;;;;5075634;28;20254;-83
2022/04/06 11:07:08;;;;;;;6.50;5.90;;;16.20;90.90;;;;;;5077334;28;20634;-85
2022/04/06 11:12:29;;;;;;;7.90;5.67;;;16.20;89.50;;;;;;5080435;28;20286;-88
2022/04/06 11:15:01;;;;;;;6.10;5.60;;;16.20;89.10;;;;;;5080462;28;20170;-89
2022/04/06 11:17:39;;;;;;;6.90;5.77;;;16.20;90.00;;;;;;5083827;28;20175;-89
2022/04/06 11:20:15;;;;;;;5.70;4.87;;;16.30;90.00;;;;;;5080511;28;20163;-88
2022/04/06 11:22:50;;;;;;;5.17;4.77;;;16.40;90.10;;;;;;5084018;28;20170;-84
2022/04/06 11:25:19;;;;;;;5.30;4.90;;;16.50;89.70;;;;;;5076900;28;20256;-86
2022/04/06 11:27:45;;;;;;;5.63;5.20;;;16.50;88.60;;;;;;5075172;28;20168;-85
2022/04/06 11:30:13;;;;;;;5.57;5.10;;;16.60;89.90;;;;;;5075285;28;20213;-82
2022/04/06 11:32:51;;;;;;;5.43;5.03;;;16.60;90.00;;;;;;5074557;28;20210;-87
2022/04/06 11:35:17;;;;;;;8.30;5.90;;;16.70;90.00;;;;;;5076928;28;20167;-87
2022/04/06 11:37:55;;;;;;;5.40;5.00;;;16.80;89.30;;;;;;5076782;28;20172;-88
2022/04/06 11:40:22;;;;;;;6.03;5.53;;;16.80;90.00;;;;;;5076712;28;20159;-88
2022/04/06 11:42:52;;;;;;;6.33;5.70;;;16.90;89.30;;;;;;5075863;28;20225;-82
2022/04/06 11:45:30;;;;;;;8.50;6.27;;;16.90;88.80;;;;;;5074970;28;20203;-85
2022/04/06 11:48:01;;;;;;;6.40;5.90;;;17.00;89.00;;;;;;5075423;28;20167;-89
2022/04/06 11:50:38;;;;;;;7.23;6.50;;;17.10;89.00;;;;;;5075080;28;20257;-86
2022/04/06 11:53:05;;;;;;;7.30;6.70;;;17.00;88.80;;;;;;5075254;28;20704;-82
2022/04/06 11:55:48;;;;;;;6.43;5.93;;;17.10;89.90;;;;;;5075058;28;20163;-85
2022/04/06 11:58:39;;;;;;;7.70;7.00;;;17.20;88.30;;;;;;5075241;28;20499;-87
2022/04/06 12:01:26;;;;;;;5.97;5.47;;;17.40;87.50;;;;;;5076492;28;20167;-83
2022/04/06 12:03:52;;;;;;;5.90;5.30;;;17.30;86.80;;;;;;5075652;28;20300;-83
2022/04/06 12:06:19;;;;;;;6.30;5.40;;;17.30;87.70;;;;;;5075652;28;20179;-86
2022/04/06 12:08:47;;;;;;;5.80;5.40;;;17.10;86.90;;;;;;5075638;28;20175;-84
2022/04/06 12:11:13;;;;;;;6.77;6.03;;;17.10;87.60;;;;;;5075887;28;20214;-86
2022/04/06 12:13:41;;;;;;;5.93;5.53;;;17.20;87.90;;;;;;5074017;28;20245;-84
2022/04/06 12:16:08;;;;;;;5.40;5.10;;;17.10;86.40;;;;;;5074811;28;20172;-84
2022/04/06 12:18:38;;;;;;;8.37;5.20;;;17.20;86.90;;;;;;5074796;28;20196;-84
2022/04/06 12:21:21;;;;;;;5.47;5.07;;;17.20;87.00;;;;;;5075108;28;20175;-84
2022/04/06 12:23:48;;;;;;;5.90;5.37;;;17.30;87.70;;;;;;5073448;28;20167;-88
2022/04/06 12:26:15;;;;;;;7.63;6.20;;;17.30;87.30;;;;;;5075085;28;20167;-86
2022/04/06 12:28:43;;;;;;;6.77;5.10;;;17.30;87.20;;;;;;5073777;28;20172;-85
2022/04/06 12:31:12;;;;;;;5.77;5.07;;;17.40;86.50;;;;;;5074462;28;20558;-85
2022/04/06 12:33:45;;;;;;;5.40;4.90;;;17.40;85.60;;;;;;5075447;28;20230;-84
2022/04/06 12:36:22;;;;;;;5.73;5.00;;;17.40;85.30;;;;;;5074344;28;20171;-86
2022/04/06 12:39:14;;;;;;;5.40;5.00;;;17.40;84.80;;;;;;5073618;28;20530;-87
2022/04/06 12:42:02;;;;;;;6.03;5.53;;;17.30;84.30;;;;;;5074622;28;20165;-84
2022/04/06 12:44:29;;;;;;;6.50;6.00;;;17.40;84.50;;;;;;5074229;28;20561;-89
2022/04/06 12:46:56;;;;;;;6.20;5.70;;;17.40;84.30;;;;;;5073981;28;20518;-83
2022/04/06 12:49:37;;;;;;;5.40;5.00;;;17.30;84.10;;;;;;5081100;28;20180;-81
2022/04/06 12:52:14;;;;;;;6.03;5.57;;;17.30;84.70;;;;;;5083922;28;20348;-87
2022/04/06 12:55:00;;;;;;;5.93;5.53;;;17.30;85.60;;;;;;5079518;28;20213;-83
2022/04/06 12:57:26;;;;;;;5.50;5.17;;;17.30;85.10;;;;;;5078851;28;20252;-82
2022/04/06 13:00:08;;;;;;;4.97;4.60;;;17.40;84.10;;;;;;5083381;28;20188;-82
2022/04/06 13:02:49;;;;;;;4.87;4.57;;;17.30;83.40;;;;;;5085800;28;20181;-81
2022/04/06 13:05:22;;;;;;;4.93;4.63;;;17.40;83.20;;;;;;5085385;28;20219;-84
2022/04/06 13:07:52;;;;;;;5.27;4.77;;;17.50;84.80;;;;;;5080763;28;20163;-84
2022/04/06 13:10:26;;;;;;;5.40;4.90;;;17.50;84.50;;;;;;5076283;28;20182;-87